Time;durP1;ratioP1;P1;durP2;ratioP2;P2;SDS_P1;SDS_P2;PMS_P1;PMS_P2;Temp;Humidity;BMP_temperature;BMP_pressure;BME280_temperature;BME280_humidity;BME280_pressure;Samples;Min_cycle;Max_cycle;Signal;HPM_P1;HPM_P2
2023/05/29 00:01:23;;;;;;;5.93;1.83;;;;;;;17.70;46.51;100494.78;10292912;28;20081;-57
2023/05/29 00:06:25;;;;;;;6.00;2.47;;;;;;;17.60;46.70;100495.28;10293133;28;20035;-58
2023/05/29 00:11:26;;;;;;;7.32;2.50;;;;;;;17.48;47.41;100496.22;10298226;28;20059;-58
2023/05/29 00:16:29;;;;;;;6.13;2.17;;;;;;;17.40;47.75;100492.69;10297609;28;20042;-57
2023/05/29 00:21:30;;;;;;;4.95;2.35;;;;;;;17.28;47.84;100488.13;10294322;28;20062;-59
2023/05/29 00:26:32;;;;;;;3.78;1.38;;;;;;;17.22;48.01;100487.97;10302115;28;20116;-57
2023/05/29 00:31:33;;;;;;;4.72;1.58;;;;;;;17.10;48.22;100478.84;10291526;28;20062;-58
2023/05/29 00:36:35;;;;;;;3.60;1.33;;;;;;;16.98;48.31;100483.25;10296038;28;20097;-58
2023/05/29 00:41:36;;;;;;;4.85;1.30;;;;;;;16.87;48.77;100476.63;10301477;28;20067;-58
2023/05/29 00:46:37;;;;;;;5.32;1.50;;;;;;;16.82;49.11;100484.56;10292089;28;20049;-58
2023/05/29 00:51:40;;;;;;;3.08;1.75;;;;;;;16.77;49.15;100481.66;10294770;28;20059;-58
2023/05/29 00:56:45;;;;;;;4.40;2.20;;;;;;;16.71;49.04;100482.50;10296765;28;20050;-59
2023/05/29 01:01:48;;;;;;;6.57;2.00;;;;;;;16.65;49.38;100486.91;10291841;28;20042;-59
2023/05/29 01:06:51;;;;;;;5.15;1.75;;;;;;;16.61;49.60;100491.09;10295274;28;20051;-59
2023/05/29 01:12:33;;;;;;;4.35;1.77;;;;;;;16.52;49.68;100486.91;10293532;28;20047;-57
2023/05/29 01:17:54;;;;;;;3.75;2.03;;;;;;;16.42;49.99;100488.19;10291778;28;20043;-58
2023/05/29 01:23:51;;;;;;;5.00;1.67;;;;;;;16.35;50.18;100481.09;10293915;28;20050;-59
2023/05/29 01:28:56;;;;;;;3.92;2.55;;;;;;;16.30;50.46;100494.47;10239283;28;20054;-58
2023/05/29 01:34:02;;;;;;;4.38;1.80;;;;;;;16.19;50.35;100483.22;10294258;28;20102;-58
2023/05/29 01:39:05;;;;;;;5.47;2.30;;;;;;;16.11;50.98;100485.28;10297801;28;20057;-59
2023/05/29 01:44:08;;;;;;;3.03;1.83;;;;;;;16.06;51.15;100475.06;10299317;28;20050;-58
2023/05/29 01:49:11;;;;;;;5.50;1.80;;;;;;;16.01;51.31;100489.25;10302868;28;20057;-58
2023/05/29 01:54:13;;;;;;;6.00;1.77;;;;;;;15.98;51.49;100478.00;10295840;28;20046;-58
2023/05/29 01:59:15;;;;;;;4.47;1.52;;;;;;;15.92;51.70;100473.41;10303363;28;20053;-60
2023/05/29 02:04:16;;;;;;;4.53;1.77;;;;;;;15.86;51.76;100478.63;10299673;28;20493;-57
2023/05/29 02:09:18;;;;;;;3.08;1.40;;;;;;;15.86;51.89;100472.38;10301142;28;20383;-59
2023/05/29 02:14:19;;;;;;;7.15;1.83;;;;;;;15.85;51.78;100466.09;10301230;28;20050;-58
2023/05/29 02:19:21;;;;;;;6.35;1.63;;;;;;;15.88;51.89;100469.41;10302780;28;20085;-60
2023/05/29 02:24:22;;;;;;;4.07;1.73;;;;;;;15.80;52.02;100468.59;10299089;28;20059;-59
2023/05/29 02:29:24;;;;;;;6.15;2.53;;;;;;;15.81;52.04;100472.97;10298620;28;20057;-59
2023/05/29 02:34:25;;;;;;;4.97;2.05;;;;;;;15.78;52.03;100470.69;10297612;28;20501;-58
2023/05/29 02:39:26;;;;;;;5.47;1.33;;;;;;;15.80;52.08;100473.19;10303782;28;20046;-58
2023/05/29 02:44:28;;;;;;;5.43;1.65;;;;;;;15.82;52.14;100471.13;10295974;28;20039;-59
2023/05/29 02:49:29;;;;;;;4.30;1.40;;;;;;;15.85;52.07;100467.97;10300440;28;20443;-59
2023/05/29 02:54:31;;;;;;;3.55;1.20;;;;;;;15.91;52.34;100469.84;10301387;28;20436;-59
2023/05/29 02:59:32;;;;;;;5.22;1.42;;;;;;;15.94;52.27;100472.16;10296162;28;20053;-58
2023/05/29 03:04:34;;;;;;;3.88;1.48;;;;;;;16.02;52.32;100469.22;10300189;28;20058;-58
2023/05/29 03:09:35;;;;;;;7.82;1.80;;;;;;;16.10;52.48;100467.34;10295955;28;20045;-58
2023/05/29 03:14:37;;;;;;;8.75;2.15;;;;;;;16.20;52.58;100470.47;10294494;28;20050;-59
2023/05/29 03:19:38;;;;;;;4.65;1.60;;;;;;;16.30;52.45;100480.91;10299730;28;20046;-60
2023/05/29 03:24:40;;;;;;;3.25;1.98;;;;;;;16.38;52.47;100480.69;10292440;28;20078;-60
2023/05/29 03:29:41;;;;;;;7.18;1.33;;;;;;;16.46;52.46;100484.00;10302585;28;20050;-60
2023/05/29 03:34:43;;;;;;;5.35;2.00;;;;;;;16.52;52.57;100487.75;10293554;28;20046;-60
2023/05/29 03:39:45;;;;;;;7.95;3.42;;;;;;;16.53;52.79;100488.56;10297631;28;20047;-59
2023/05/29 03:44:46;;;;;;;6.35;2.10;;;;;;;16.60;52.70;100495.66;10295025;28;20125;-60
2023/05/29 03:49:48;;;;;;;11.63;2.03;;;;;;;16.61;52.91;100494.63;10299493;28;20039;-60
2023/05/29 03:54:49;;;;;;;9.50;1.67;;;;;;;16.61;52.95;100502.75;10296518;28;20062;-60
2023/05/29 03:59:51;;;;;;;5.72;1.90;;;;;;;16.64;53.02;100509.63;10286975;28;20098;-61
2023/05/29 04:04:52;;;;;;;5.22;2.05;;;;;;;16.61;53.37;100512.78;10296003;28;20501;-60
2023/05/29 04:09:54;;;;;;;8.00;1.90;;;;;;;16.62;53.33;100518.00;10282762;28;20058;-60
2023/05/29 04:14:55;;;;;;;8.27;2.42;;;;;;;16.61;53.62;100520.94;10293598;28;20054;-60
2023/05/29 04:19:57;;;;;;;2.97;1.90;;;;;;;16.56;53.87;100531.59;10296008;28;20054;-60
2023/05/29 04:24:58;;;;;;;5.05;2.35;;;;;;;16.59;53.95;100542.03;10294107;28;20423;-60
2023/05/29 04:30:00;;;;;;;5.57;1.83;;;;;;;16.56;54.20;100553.28;10299163;28;20363;-60
2023/05/29 04:35:02;;;;;;;4.32;2.35;;;;;;;16.56;54.41;100561.44;10290181;28;20059;-60
2023/05/29 04:40:08;;;;;;;6.13;1.80;;;;;;;16.67;54.14;100558.09;10295335;28;20047;-60
2023/05/29 04:45:13;;;;;;;5.90;2.50;;;;;;;16.64;54.36;100563.94;10276305;28;20078;-60
2023/05/29 04:50:16;;;;;;;2.60;1.80;;;;;;;16.69;54.30;100568.75;10293828;28;20086;-60
2023/05/29 04:55:17;;;;;;;3.10;1.73;;;;;;;16.72;54.35;100571.84;10297669;28;20062;-60
2023/05/29 05:00:19;;;;;;;6.07;1.92;;;;;;;16.79;54.61;100593.56;10291341;28;20050;-59
2023/05/29 05:05:21;;;;;;;7.13;2.35;;;;;;;16.84;54.47;100594.66;10297630;28;20046;-60
2023/05/29 05:10:22;;;;;;;6.63;2.30;;;;;;;16.85;54.60;100595.47;10294341;28;20078;-60
2023/05/29 05:15:24;;;;;;;5.03;2.15;;;;;;;16.92;54.82;100600.88;10295586;28;20050;-60
2023/05/29 05:20:25;;;;;;;4.53;2.75;;;;;;;16.98;54.52;100605.47;10303094;28;20288;-61
2023/05/29 05:25:27;;;;;;;8.68;2.45;;;;;;;17.02;54.65;100609.41;10304125;28;20050;-60
2023/05/29 05:30:28;;;;;;;5.28;2.55;;;;;;;17.09;54.74;100599.38;10299142;28;20528;-60
2023/05/29 05:35:30;;;;;;;4.82;2.47;;;;;;;17.21;54.53;100602.28;10302306;28;20049;-61
2023/05/29 05:40:32;;;;;;;7.32;2.83;;;;;;;17.29;54.28;100606.66;10295625;28;20046;-60
2023/05/29 05:45:34;;;;;;;5.97;2.47;;;;;;;17.31;54.59;100604.56;10307956;28;20061;-61
2023/05/29 05:50:35;;;;;;;5.82;2.25;;;;;;;17.45;54.29;100607.00;10300657;28;20382;-60
2023/05/29 05:55:37;;;;;;;7.13;2.00;;;;;;;17.60;53.95;100606.72;10301585;28;20058;-60
2023/05/29 06:00:40;;;;;;;6.68;2.53;;;;;;;17.72;53.72;100606.88;10301582;28;20042;-59
2023/05/29 06:05:41;;;;;;;3.83;2.05;;;;;;;17.81;53.69;100626.50;10302686;28;20035;-60
2023/05/29 06:10:43;;;;;;;6.05;2.35;;;;;;;17.89;53.79;100634.47;10303119;28;20465;-60
2023/05/29 06:15:45;;;;;;;4.13;1.80;;;;;;;17.98;53.54;100632.31;10304335;28;20043;-60
2023/05/29 06:20:46;;;;;;;9.05;2.78;;;;;;;18.10;53.19;100632.44;10299516;28;20038;-60
2023/05/29 06:25:49;;;;;;;5.38;2.00;;;;;;;18.25;52.97;100641.16;10306303;28;20050;-61
2023/05/29 06:30:50;;;;;;;8.27;1.75;;;;;;;18.35;52.98;100643.38;10300394;28;20051;-60
2023/05/29 06:35:52;;;;;;;6.00;1.90;;;;;;;18.51;52.45;100644.72;10300196;28;20137;-60
2023/05/29 06:40:53;;;;;;;5.63;2.25;;;;;;;18.61;52.44;100650.50;10301603;28;20401;-60
2023/05/29 06:45:55;;;;;;;7.50;2.13;;;;;;;18.86;52.09;100644.25;10301447;28;20158;-60
2023/05/29 06:50:57;;;;;;;5.25;2.35;;;;;;;19.00;51.84;100638.47;10299923;28;20050;-60
2023/05/29 06:55:58;;;;;;;6.05;1.90;;;;;;;19.13;51.25;100636.66;10293191;28;20054;-60
2023/05/29 07:01:00;;;;;;;5.53;2.30;;;;;;;19.27;51.00;100635.44;10296343;28;20049;-60
2023/05/29 07:06:06;;;;;;;4.27;1.90;;;;;;;19.47;50.81;100635.25;10294316;28;20053;-61
2023/05/29 07:11:08;;;;;;;5.30;2.00;;;;;;;19.61;50.52;100646.81;10299521;28;20274;-60
2023/05/29 07:16:09;;;;;;;6.68;1.92;;;;;;;19.70;50.11;100653.63;10296516;28;20064;-60
2023/05/29 07:21:24;;;;;;;8.27;2.40;;;;;;;19.88;49.45;100654.69;10296902;28;20092;-59
2023/05/29 07:26:26;;;;;;;5.57;1.98;;;;;;;20.07;48.90;100650.88;10297871;28;20096;-60
2023/05/29 07:31:27;;;;;;;5.05;1.77;;;;;;;20.34;48.20;100655.91;10301162;28;20046;-62
2023/05/29 07:36:31;;;;;;;8.00;2.10;;;;;;;20.56;47.87;100653.50;10299400;28;20396;-59
2023/05/29 07:41:32;;;;;;;5.97;1.90;;;;;;;20.55;47.65;100660.84;10302700;28;20038;-60
2023/05/29 07:46:34;;;;;;;4.97;1.52;;;;;;;20.59;47.47;100664.78;10296490;28;20072;-59
2023/05/29 07:51:36;;;;;;;5.82;1.67;;;;;;;20.72;47.07;100663.75;10293936;28;20097;-60
2023/05/29 07:56:40;;;;;;;3.80;1.20;;;;;;;20.89;46.44;100666.66;10298109;28;20054;-60
2023/05/29 08:01:43;;;;;;;5.35;1.60;;;;;;;21.00;46.50;100664.97;10298987;28;20057;-61
2023/05/29 08:06:45;;;;;;;4.72;1.50;;;;;;;21.19;46.06;100663.78;10299856;28;20102;-59
2023/05/29 08:11:47;;;;;;;7.47;1.50;;;;;;;21.35;45.17;100664.97;10294128;28;20458;-60
2023/05/29 08:16:48;;;;;;;3.30;1.55;;;;;;;21.64;45.04;100661.47;10295936;28;20457;-59
2023/05/29 08:21:50;;;;;;;6.70;1.73;;;;;;;21.86;45.08;100654.28;10293651;28;20968;-60
2023/05/29 08:26:52;;;;;;;4.65;1.70;;;;;;;21.78;44.98;100650.03;10290704;28;20043;-60
2023/05/29 08:31:53;;;;;;;3.47;1.42;;;;;;;22.02;44.57;100655.41;10295667;28;20129;-58
2023/05/29 08:36:55;;;;;;;7.45;2.15;;;;;;;22.12;43.98;100643.81;10290558;28;20062;-60
2023/05/29 08:42:17;;;;;;;5.30;2.20;;;;;;;22.31;43.40;100641.72;10289492;28;20043;-60
2023/05/29 08:47:21;;;;;;;5.63;2.40;;;;;;;22.40;43.16;100644.91;10289929;28;20051;-60
2023/05/29 08:52:26;;;;;;;4.13;1.30;;;;;;;22.61;43.04;100652.38;10293627;28;20034;-57
2023/05/29 08:57:29;;;;;;;3.45;1.55;;;;;;;22.65;42.67;100645.34;10296577;28;20062;-58
2023/05/29 09:02:31;;;;;;;5.85;1.90;;;;;;;22.79;42.27;100662.28;10302731;28;20379;-59
2023/05/29 09:07:33;;;;;;;2.75;1.38;;;;;;;23.08;41.47;100656.69;10300960;28;20053;-58
2023/05/29 09:12:36;;;;;;;2.97;1.10;;;;;;;23.28;41.30;100650.66;10295050;28;20042;-59
2023/05/29 09:17:38;;;;;;;6.55;1.88;;;;;;;23.35;41.18;100651.31;10296763;28;20501;-57
2023/05/29 09:22:46;;;;;;;5.40;2.00;;;;;;;23.47;40.88;100653.94;10301621;28;20130;-58
2023/05/29 09:27:50;;;;;;;4.15;2.08;;;;;;;23.71;40.80;100654.53;10297953;28;20054;-59
2023/05/29 09:32:53;;;;;;;2.22;1.27;;;;;;;23.92;39.93;100650.97;10302153;28;20133;-59
2023/05/29 09:37:56;;;;;;;7.25;2.10;;;;;;;24.03;39.71;100651.06;10289557;28;20042;-60
2023/05/29 09:43:19;;;;;;;4.35;1.60;;;;;;;24.35;39.63;100651.97;10300038;28;20399;-62
2023/05/29 09:48:25;;;;;;;6.43;1.80;;;;;;;24.40;39.00;100645.66;10292879;28;20067;-60
2023/05/29 09:53:28;;;;;;;6.05;1.98;;;;;;;24.72;38.53;100653.97;10294601;28;20045;-60
2023/05/29 09:58:32;;;;;;;4.38;1.30;;;;;;;24.88;38.36;100643.06;10294495;28;20053;-62
2023/05/29 10:03:34;;;;;;;7.22;1.98;;;;;;;25.20;37.71;100650.41;10280359;28;20105;-61
2023/05/29 10:08:41;;;;;;;3.97;1.63;;;;;;;25.42;37.32;100645.63;10292906;28;20050;-61
2023/05/29 10:13:49;;;;;;;;;;;;;;;25.56;37.29;100645.97;10300859;28;20062;-65
2023/05/29 10:18:55;;;;;;;4.07;1.27;;;;;;;25.70;36.41;100638.03;10296903;28;19977;-62
2023/05/29 10:23:58;;;;;;;5.40;1.23;;;;;;;25.86;36.01;100652.69;10285146;28;20046;-62
2023/05/29 10:29:26;;;;;;;5.30;1.50;;;;;;;25.96;35.53;100646.41;10294859;28;20414;-62
2023/05/29 10:35:11;;;;;;;4.35;1.35;;;;;;;26.17;35.56;100644.53;10292937;28;20050;-62
2023/05/29 10:40:13;;;;;;;2.78;1.17;;;;;;;26.48;34.63;100642.59;10269825;28;20047;-61
2023/05/29 10:45:30;;;;;;;4.10;1.00;;;;;;;26.54;35.02;100635.16;10294814;28;20130;-60
2023/05/29 10:50:42;;;;;;;3.17;1.42;;;;;;;26.76;34.64;100632.16;10293144;28;20051;-62
2023/05/29 10:55:45;;;;;;;3.38;1.23;;;;;;;26.88;32.99;100628.00;10289958;28;20054;-61
2023/05/29 11:00:48;;;;;;;9.95;1.75;;;;;;;26.88;32.54;100635.47;10285286;28;20406;-61
2023/05/29 11:06:10;;;;;;;3.55;1.40;;;;;;;27.13;31.88;100634.56;10293259;28;20054;-61
2023/05/29 11:11:13;;;;;;;1.95;1.10;;;;;;;27.45;31.26;100628.72;10291658;28;20053;-60
2023/05/29 11:16:29;;;;;;;4.78;1.10;;;;;;;27.60;31.29;100610.41;10299751;28;20050;-61
2023/05/29 11:21:44;;;;;;;3.80;1.00;;;;;;;27.61;31.32;100604.63;10289523;28;20142;-59
2023/05/29 11:26:45;;;;;;;2.38;1.20;;;;;;;27.86;30.88;100606.44;10292429;28;20051;-60
2023/05/29 11:31:55;;;;;;;4.25;1.00;;;;;;;27.93;30.30;100589.53;10287700;28;20050;-60
2023/05/29 11:36:58;;;;;;;4.40;1.23;;;;;;;28.11;30.27;100599.09;10292482;28;20050;-58
2023/05/29 11:42:00;;;;;;;2.38;1.00;;;;;;;28.18;29.65;100598.75;10294635;28;20053;-61
2023/05/29 11:47:03;;;;;;;2.95;1.30;;;;;;;28.26;29.27;100596.22;10289744;28;20762;-60
2023/05/29 11:52:16;;;;;;;3.55;1.08;;;;;;;28.51;29.10;100599.91;10294510;28;20042;-59
2023/05/29 11:57:21;;;;;;;1.30;0.98;;;;;;;28.76;29.05;100598.03;10295971;28;20054;-60
2023/05/29 12:02:25;;;;;;;2.80;1.57;;;;;;;28.85;28.92;100590.72;10289769;28;20045;-60
2023/05/29 12:07:26;;;;;;;2.38;1.17;;;;;;;29.14;28.42;100595.44;10295787;28;20074;-60
2023/05/29 12:12:29;;;;;;;2.42;1.02;;;;;;;29.34;28.23;100594.34;10298279;28;20050;-59
2023/05/29 12:17:31;;;;;;;3.92;1.45;;;;;;;29.44;27.73;100589.53;10297073;28;20133;-61
2023/05/29 12:22:37;;;;;;;3.92;1.17;;;;;;;29.63;27.48;100583.19;10296255;28;20062;-62
2023/05/29 12:27:46;;;;;;;3.45;1.30;;;;;;;29.87;27.11;100582.31;10293520;28;20058;-63
2023/05/29 12:32:49;;;;;;;2.92;1.77;;;;;;;30.12;27.24;100573.59;10286446;28;20053;-61
2023/05/29 12:38:00;;;;;;;1.95;1.40;;;;;;;30.21;26.36;100588.44;10287182;28;20050;-62
2023/05/29 12:43:05;;;;;;;2.80;1.38;;;;;;;30.39;26.50;100580.41;10287305;28;20146;-61
2023/05/29 12:48:07;;;;;;;1.85;1.02;;;;;;;30.42;26.03;100577.03;10286168;28;20047;-61
2023/05/29 12:53:11;;;;;;;2.38;1.20;;;;;;;30.62;25.55;100581.38;10287731;28;20063;-62
2023/05/29 12:58:15;;;;;;;4.32;1.30;;;;;;;30.84;26.03;100578.72;10277833;28;20070;-63
2023/05/29 13:03:16;;;;;;;6.22;1.40;;;;;;;31.39;25.34;100582.69;10292832;28;20042;-58
2023/05/29 13:08:19;;;;;;;2.45;1.83;;;;;;;31.20;25.03;100577.22;10298737;28;20101;-58
2023/05/29 13:13:22;;;;;;;4.82;1.83;;;;;;;31.54;24.74;100578.81;10292207;28;20077;-57
2023/05/29 13:18:23;;;;;;;16.23;4.95;;;;;;;32.70;23.90;100583.81;10287971;28;20050;-58
2023/05/29 13:23:24;;;;;;;13.15;8.05;;;;;;;34.01;22.39;100578.59;10285689;28;20057;-58
2023/05/29 13:28:29;;;;;;;6.00;1.63;;;;;;;34.89;21.34;100580.91;10297387;28;20541;-57
2023/05/29 13:33:30;;;;;;;4.40;1.70;;;;;;;34.98;21.51;100583.69;10279645;28;20409;-58
2023/05/29 13:38:32;;;;;;;3.78;1.92;;;;;;;34.56;21.93;100575.94;10294352;28;20494;-57
2023/05/29 13:43:33;;;;;;;6.53;1.58;;;;;;;34.69;21.37;100581.66;10297883;28;20051;-58
2023/05/29 13:48:45;;;;;;;3.60;1.25;;;;;;;34.94;21.69;100569.56;10299771;28;20054;-58
2023/05/29 13:53:46;;;;;;;4.28;1.10;;;;;;;36.08;20.62;100571.63;10297433;28;20043;-61
2023/05/29 13:58:48;;;;;;;3.50;1.10;;;;;;;36.23;20.21;100559.00;10306984;28;20055;-57
2023/05/29 14:03:49;;;;;;;4.75;1.45;;;;;;;36.05;20.24;100561.13;10299239;28;20061;-59
2023/05/29 14:08:51;;;;;;;2.80;1.23;;;;;;;35.20;20.76;100551.06;10291337;28;20050;-60
2023/05/29 14:13:52;;;;;;;2.83;1.10;;;;;;;34.44;21.07;100555.41;10299411;28;20050;-62
2023/05/29 14:18:54;;;;;;;4.63;1.58;;;;;;;33.55;22.49;100559.38;10303537;28;20050;-59
2023/05/29 14:23:55;;;;;;;3.00;1.20;;;;;;;33.39;22.90;100563.75;10297418;28;20043;-57
2023/05/29 14:28:57;;;;;;;2.25;1.17;;;;;;;34.34;22.12;100551.84;10300024;28;20042;-55
2023/05/29 14:34:14;;;;;;;7.15;1.48;;;;;;;35.66;20.81;100552.06;10296343;28;20046;-56
2023/05/29 14:39:15;;;;;;;2.60;1.38;;;;;;;36.46;19.98;100554.66;10300258;28;20604;-55
2023/05/29 14:44:17;;;;;;;3.03;1.27;;;;;;;37.18;19.21;100559.88;10297847;28;20051;-55
2023/05/29 14:49:19;;;;;;;3.67;1.30;;;;;;;37.17;18.89;100552.66;10304400;28;20120;-57
2023/05/29 14:54:21;;;;;;;4.65;1.45;;;;;;;36.06;19.99;100552.41;10295622;28;20050;-56
2023/05/29 14:59:23;;;;;;;3.90;1.20;;;;;;;35.24;20.81;100544.44;10299821;28;20485;-55
2023/05/29 15:04:24;;;;;;;5.45;1.10;;;;;;;34.92;21.28;100543.94;10293183;28;20060;-57
2023/05/29 15:09:26;;;;;;;2.40;1.40;;;;;;;34.73;21.12;100549.94;10290718;28;20069;-56
2023/05/29 15:14:28;;;;;;;3.70;1.48;;;;;;;33.96;21.50;100546.13;10275313;28;20056;-57
2023/05/29 15:19:30;;;;;;;4.63;1.35;;;;;;;33.45;22.60;100556.88;10290109;28;20841;-55
2023/05/29 15:24:31;;;;;;;2.70;1.30;;;;;;;33.45;22.79;100553.28;10289174;28;20046;-57
2023/05/29 15:29:35;;;;;;;4.35;1.52;;;;;;;33.18;22.99;100538.50;10298664;28;20505;-56
2023/05/29 15:34:37;;;;;;;7.00;1.80;;;;;;;32.82;23.23;100547.00;10290766;28;20058;-57
2023/05/29 15:39:39;;;;;;;4.45;1.30;;;;;;;32.51;23.58;100548.66;10264163;28;20054;-58
2023/05/29 15:44:41;;;;;;;6.30;1.02;;;;;;;32.19;24.05;100539.44;10294892;28;20058;-55
2023/05/29 15:49:43;;;;;;;5.60;1.55;;;;;;;32.08;24.51;100540.03;10295099;28;20053;-55
2023/05/29 15:54:44;;;;;;;2.00;1.10;;;;;;;32.14;24.57;100545.13;10299091;28;20042;-56
2023/05/29 15:59:45;;;;;;;2.22;1.08;;;;;;;31.97;24.42;100542.19;10297977;28;20332;-57
2023/05/29 16:04:47;;;;;;;2.85;1.60;;;;;;;31.61;25.29;100543.84;10298052;28;20054;-56
2023/05/29 16:10:07;;;;;;;4.65;1.65;;;;;;;31.58;25.17;100550.06;10289057;28;20042;-56
2023/05/29 16:15:08;;;;;;;10.30;1.60;;;;;;;31.48;25.29;100547.50;10291731;28;20053;-58
2023/05/29 16:20:10;;;;;;;29.92;2.80;;;;;;;31.40;25.57;100551.00;10290030;28;20050;-57
2023/05/29 16:25:12;;;;;;;7.53;1.35;;;;;;;31.38;25.83;100550.47;10290527;28;20117;-58
2023/05/29 16:30:14;;;;;;;3.58;1.30;;;;;;;31.34;26.23;100561.41;10291901;28;20057;-56
2023/05/29 16:35:15;;;;;;;6.03;1.15;;;;;;;31.18;25.96;100554.50;10289518;28;20065;-57
2023/05/29 16:40:19;;;;;;;9.32;1.30;;;;;;;31.35;25.73;100559.44;10289893;28;20058;-58
2023/05/29 16:45:21;;;;;;;8.27;2.45;;;;;;;31.37;26.11;100563.53;10294066;28;20489;-58
2023/05/29 16:50:22;;;;;;;3.88;1.15;;;;;;;31.01;26.65;100560.69;10286771;28;20437;-58
2023/05/29 16:55:25;;;;;;;8.73;1.70;;;;;;;30.81;26.39;100564.66;10289148;28;20050;-59
2023/05/29 17:00:27;;;;;;;4.25;1.10;;;;;;;30.66;27.02;100564.94;10292308;28;20062;-58
2023/05/29 17:05:28;;;;;;;4.72;1.05;;;;;;;30.54;26.72;100555.16;10288454;28;20051;-59
2023/05/29 17:10:32;;;;;;;2.88;1.38;;;;;;;30.72;27.06;100553.44;10272532;28;20521;-58
2023/05/29 17:15:34;;;;;;;4.10;1.08;;;;;;;30.65;27.54;100558.59;10296105;28;20054;-58
2023/05/29 17:20:35;;;;;;;6.47;1.48;;;;;;;30.64;27.57;100562.47;10298758;28;20050;-58
2023/05/29 17:25:37;;;;;;;14.95;2.28;;;;;;;30.38;27.34;100564.88;10294783;28;20046;-58
2023/05/29 17:30:38;;;;;;;3.08;1.20;;;;;;;30.09;28.07;100570.59;10303598;28;20034;-58
2023/05/29 17:35:40;;;;;;;5.40;1.25;;;;;;;30.01;27.75;100569.34;10293259;28;20051;-58
2023/05/29 17:40:41;;;;;;;4.93;1.08;;;;;;;29.55;28.22;100576.34;10295550;28;20053;-57
2023/05/29 17:45:45;;;;;;;3.30;1.27;;;;;;;29.51;28.59;100580.03;10288676;28;20054;-58
2023/05/29 17:50:47;;;;;;;3.60;1.00;;;;;;;29.33;28.43;100587.19;10293601;28;20379;-56
2023/05/29 17:55:49;;;;;;;5.57;1.20;;;;;;;29.10;28.86;100595.16;10287879;28;20428;-59
2023/05/29 18:00:51;;;;;;;4.20;1.20;;;;;;;28.75;29.16;100597.19;10277058;28;20054;-56
2023/05/29 18:05:53;;;;;;;6.78;1.75;;;;;;;28.48;29.84;100593.00;10290452;28;20050;-57
2023/05/29 18:10:55;;;;;;;7.47;1.73;;;;;;;27.98;30.37;100599.72;10293591;28;20117;-58
2023/05/29 18:15:56;;;;;;;6.03;1.77;;;;;;;27.54;31.00;100592.22;10300396;28;20410;-57
2023/05/29 18:20:58;;;;;;;3.70;1.85;;;;;;;27.11;31.72;100600.91;10296752;28;20050;-56
2023/05/29 18:26:00;;;;;;;5.53;1.73;;;;;;;26.67;32.38;100607.06;10300745;28;20057;-56
2023/05/29 18:31:01;;;;;;;10.05;1.58;;;;;;;26.28;33.61;100608.44;10296762;28;20054;-56
2023/05/29 18:36:03;;;;;;;4.40;1.30;;;;;;;25.75;33.72;100598.66;10299170;28;20054;-57
2023/05/29 18:41:05;;;;;;;8.38;1.88;;;;;;;25.38;34.28;100608.72;10295845;28;20289;-57
2023/05/29 18:46:06;;;;;;;5.30;1.80;;;;;;;25.04;35.06;100630.22;10302771;28;20045;-57
2023/05/29 18:51:10;;;;;;;4.90;1.20;;;;;;;24.75;35.46;100625.09;10302042;28;20053;-57
2023/05/29 18:56:11;;;;;;;8.95;2.22;;;;;;;24.39;35.92;100632.19;10294377;28;20034;-57
2023/05/29 19:01:13;;;;;;;6.13;1.42;;;;;;;24.10;36.51;100629.72;10298280;28;20042;-56
2023/05/29 19:06:31;;;;;;;6.22;1.60;;;;;;;23.81;36.85;100634.63;10295699;28;20477;-65
2023/05/29 19:11:33;;;;;;;7.60;1.02;;;;;;;23.53;37.40;100642.78;10291222;28;20125;-64
2023/05/29 19:16:35;;;;;;;4.78;1.38;;;;;;;23.26;37.70;100650.09;10293245;28;20332;-64
2023/05/29 19:21:37;;;;;;;7.38;1.27;;;;;;;23.01;38.12;100661.50;10293171;28;20477;-63
2023/05/29 19:26:41;;;;;;;9.75;1.60;;;;;;;22.73;38.60;100660.53;10288487;28;20047;-62
2023/05/29 19:31:43;;;;;;;6.05;1.10;;;;;;;22.52;38.76;100682.09;10301837;28;20055;-65
2023/05/29 19:36:44;;;;;;;5.65;1.10;;;;;;;22.32;38.92;100677.09;10296223;28;20046;-65
2023/05/29 19:41:46;;;;;;;6.85;3.40;;;;;;;22.18;39.59;100694.88;10294016;28;20050;-64
2023/05/29 19:46:47;;;;;;;4.05;1.35;;;;;;;22.01;39.62;100689.31;10297703;28;20053;-64
2023/05/29 19:51:51;;;;;;;6.75;1.50;;;;;;;21.80;40.28;100699.06;10295700;28;20054;-62
2023/05/29 19:56:53;;;;;;;5.13;1.35;;;;;;;21.70;40.31;100704.28;10294036;28;20070;-62
2023/05/29 20:01:54;;;;;;;6.72;1.77;;;;;;;21.56;40.83;100711.94;10290295;28;20568;-62
2023/05/29 20:06:56;;;;;;;6.07;1.38;;;;;;;21.41;41.15;100726.06;10301087;28;20050;-62
2023/05/29 20:11:58;;;;;;;7.95;1.40;;;;;;;21.26;41.19;100726.53;10298557;28;20057;-63
2023/05/29 20:16:59;;;;;;;4.47;1.65;;;;;;;21.13;41.17;100726.78;10299612;28;20053;-61
2023/05/29 20:22:01;;;;;;;4.05;1.10;;;;;;;21.03;41.33;100723.78;10301899;28;20537;-60
2023/05/29 20:27:03;;;;;;;5.13;1.38;;;;;;;20.94;41.04;100739.72;10297336;28;20050;-62
2023/05/29 20:32:05;;;;;;;5.93;2.15;;;;;;;20.84;41.55;100740.28;10300343;28;20057;-62
2023/05/29 20:37:06;;;;;;;6.05;1.05;;;;;;;20.71;41.39;100744.03;10299743;28;20052;-62
2023/05/29 20:42:11;;;;;;;5.63;2.05;;;;;;;20.60;41.83;100745.69;10304105;28;20518;-62
2023/05/29 20:47:12;;;;;;;7.22;1.55;;;;;;;20.51;42.01;100751.69;10304612;28;20045;-61
2023/05/29 20:52:14;;;;;;;5.43;1.10;;;;;;;20.38;42.18;100753.53;10304309;28;20046;-61
2023/05/29 20:57:15;;;;;;;5.85;0.93;;;;;;;20.27;42.13;100757.03;10301389;28;20088;-62
2023/05/29 21:02:17;;;;;;;8.30;1.42;;;;;;;20.21;42.23;100771.63;10295270;28;20042;-61
2023/05/29 21:07:18;;;;;;;3.55;0.98;;;;;;;20.09;42.60;100762.53;10296400;28;20070;-63
2023/05/29 21:12:20;;;;;;;6.35;1.20;;;;;;;20.02;42.57;100765.34;10293773;28;20050;-62
2023/05/29 21:17:21;;;;;;;3.30;1.00;;;;;;;19.88;42.82;100761.09;10299055;28;20133;-62
2023/05/29 21:22:23;;;;;;;3.67;0.80;;;;;;;19.86;42.77;100763.22;10296909;28;20120;-62
2023/05/29 21:27:25;;;;;;;6.70;1.13;;;;;;;19.75;42.96;100767.56;10281735;28;20045;-62
2023/05/29 21:32:27;;;;;;;7.30;2.40;;;;;;;19.68;43.04;100758.56;10298103;28;20046;-62
2023/05/29 21:37:29;;;;;;;3.83;1.13;;;;;;;19.61;43.17;100750.47;10299638;28;20047;-64
2023/05/29 21:42:31;;;;;;;3.00;1.30;;;;;;;19.48;43.44;100769.69;10293354;28;20053;-61
2023/05/29 21:47:32;;;;;;;7.18;0.88;;;;;;;19.39;43.57;100771.84;10297645;28;20082;-62
2023/05/29 21:52:34;;;;;;;7.75;1.10;;;;;;;19.31;43.46;100780.31;10294643;28;20039;-63
2023/05/29 21:57:35;;;;;;;4.88;0.77;;;;;;;19.28;43.40;100781.59;10295919;28;20054;-63
2023/05/29 22:02:37;;;;;;;5.00;1.00;;;;;;;19.14;43.29;100785.50;10303618;28;20061;-63
2023/05/29 22:07:39;;;;;;;3.30;1.05;;;;;;;19.06;43.32;100778.44;10299388;28;20054;-63
2023/05/29 22:12:40;;;;;;;3.03;0.80;;;;;;;19.01;43.29;100778.25;10303662;28;20057;-62
2023/05/29 22:17:45;;;;;;;5.75;0.90;;;;;;;18.95;43.17;100787.31;10297597;28;20066;-63
2023/05/29 22:22:47;;;;;;;3.38;0.77;;;;;;;18.90;43.03;100792.56;10300482;28;20482;-62
2023/05/29 22:27:49;;;;;;;5.25;0.75;;;;;;;18.83;42.89;100785.28;10300789;28;20042;-63
2023/05/29 22:32:51;;;;;;;4.40;0.80;;;;;;;18.76;42.61;100784.47;10299725;28;20054;-62
2023/05/29 22:37:53;;;;;;;5.22;1.38;;;;;;;18.71;42.51;100778.84;10280947;28;20719;-63
2023/05/29 22:42:54;;;;;;;4.20;1.35;;;;;;;18.68;42.09;100784.75;10284763;28;20430;-63
2023/05/29 22:47:57;;;;;;;5.95;0.80;;;;;;;18.64;41.96;100783.47;10287774;28;20514;-64
2023/05/29 22:52:59;;;;;;;3.97;0.77;;;;;;;18.59;41.51;100791.50;10298998;28;20129;-64
2023/05/29 22:58:01;;;;;;;5.03;0.80;;;;;;;18.53;41.53;100793.19;10300611;28;20133;-64
2023/05/29 23:03:04;;;;;;;5.55;0.90;;;;;;;18.48;41.33;100786.72;10299715;28;20045;-64
2023/05/29 23:08:06;;;;;;;5.22;1.05;;;;;;;18.42;40.98;100792.00;10301040;28;20061;-63
2023/05/29 23:13:07;;;;;;;9.38;1.35;;;;;;;18.36;40.90;100797.47;10296820;28;20054;-64